sensor_id;sensor_type;location;lat;lon;timestamp;temperature;humidity
31991;DHT22;18508;49.386;8.370;2023-07-31T00:00:02;18.80;99.90
31991;DHT22;18508;49.386;8.370;2023-07-31T00:02:30;18.70;1.00
31991;DHT22;18508;49.386;8.370;2023-07-31T00:05:01;18.60;1.00
31991;DHT22;18508;49.386;8.370;2023-07-31T00:07:29;18.50;99.90
31991;DHT22;18508;49.386;8.370;2023-07-31T00:09:58;18.60;1.00
31991;DHT22;18508;49.386;8.370;2023-07-31T00:12:26;18.40;99.90
31991;DHT22;18508;49.386;8.370;2023-07-31T00:14:57;18.50;99.90
31991;DHT22;18508;49.386;8.370;2023-07-31T00:17:25;18.70;1.00
31991;DHT22;18508;49.386;8.370;2023-07-31T00:19:53;18.20;99.90
31991;DHT22;18508;49.386;8.370;2023-07-31T00:22:22;18.40;99.90
31991;DHT22;18508;49.386;8.370;2023-07-31T00:24:51;18.40;1.00
31991;DHT22;18508;49.386;8.370;2023-07-31T00:27:20;18.30;72.80
31991;DHT22;18508;49.386;8.370;2023-07-31T00:29:48;18.30;99.90
31991;DHT22;18508;49.386;8.370;2023-07-31T00:32:19;18.30;99.90
31991;DHT22;18508;49.386;8.370;2023-07-31T00:34:47;18.20;99.90
31991;DHT22;18508;49.386;8.370;2023-07-31T00:37:18;18.20;1.00
31991;DHT22;18508;49.386;8.370;2023-07-31T00:39:46;18.00;1.00
31991;DHT22;18508;49.386;8.370;2023-07-31T00:42:14;18.00;1.00
31991;DHT22;18508;49.386;8.370;2023-07-31T00:44:44;18.00;1.00
31991;DHT22;18508;49.386;8.370;2023-07-31T00:47:12;17.80;99.90
31991;DHT22;18508;49.386;8.370;2023-07-31T00:49:42;17.80;1.00
31991;DHT22;18508;49.386;8.370;2023-07-31T00:52:11;17.70;91.70
31991;DHT22;18508;49.386;8.370;2023-07-31T00:54:40;17.70;1.00
31991;DHT22;18508;49.386;8.370;2023-07-31T00:57:08;17.40;99.90
31991;DHT22;18508;49.386;8.370;2023-07-31T00:59:38;17.60;99.90
31991;DHT22;18508;49.386;8.370;2023-07-31T01:04:35;17.40;99.90
31991;DHT22;18508;49.386;8.370;2023-07-31T01:07:13;17.40;1.00
31991;DHT22;18508;49.386;8.370;2023-07-31T01:09:47;17.40;1.00
31991;DHT22;18508;49.386;8.370;2023-07-31T01:12:17;17.40;99.90
31991;DHT22;18508;49.386;8.370;2023-07-31T01:14:52;17.30;90.90
31991;DHT22;18508;49.386;8.370;2023-07-31T01:17:29;17.30;65.60
31991;DHT22;18508;49.386;8.370;2023-07-31T01:20:02;17.50;99.90
31991;DHT22;18508;49.386;8.370;2023-07-31T01:22:45;17.30;99.90
31991;DHT22;18508;49.386;8.370;2023-07-31T01:25:33;17.30;99.90
31991;DHT22;18508;49.386;8.370;2023-07-31T01:28:09;17.20;99.90
31991;DHT22;18508;49.386;8.370;2023-07-31T01:30:42;17.20;99.90
31991;DHT22;18508;49.386;8.370;2023-07-31T01:33:11;17.20;99.90
31991;DHT22;18508;49.386;8.370;2023-07-31T01:35:44;17.30;99.90
31991;DHT22;18508;49.386;8.370;2023-07-31T01:38:12;17.30;99.90
31991;DHT22;18508;49.386;8.370;2023-07-31T01:40:41;17.30;99.90
31991;DHT22;18508;49.386;8.370;2023-07-31T01:43:11;17.30;1.00
31991;DHT22;18508;49.386;8.370;2023-07-31T01:45:39;17.30;1.00
31991;DHT22;18508;49.386;8.370;2023-07-31T01:48:07;17.40;1.00
31991;DHT22;18508;49.386;8.370;2023-07-31T01:50:36;17.20;1.00
31991;DHT22;18508;49.386;8.370;2023-07-31T01:53:04;17.30;1.00
31991;DHT22;18508;49.386;8.370;2023-07-31T01:55:32;17.30;1.00
31991;DHT22;18508;49.386;8.370;2023-07-31T01:58:00;17.30;1.00
31991;DHT22;18508;49.386;8.370;2023-07-31T02:00:30;17.30;1.00
31991;DHT22;18508;49.386;8.370;2023-07-31T02:02:59;17.30;1.00
31991;DHT22;18508;49.386;8.370;2023-07-31T02:05:28;17.30;1.00
31991;DHT22;18508;49.386;8.370;2023-07-31T02:07:56;17.30;1.00
31991;DHT22;18508;49.386;8.370;2023-07-31T02:10:25;17.30;1.00
31991;DHT22;18508;49.386;8.370;2023-07-31T02:12:53;17.30;1.00
31991;DHT22;18508;49.386;8.370;2023-07-31T02:15:24;17.30;1.00
31991;DHT22;18508;49.386;8.370;2023-07-31T02:17:55;17.20;1.00
31991;DHT22;18508;49.386;8.370;2023-07-31T02:20:24;17.30;1.00
31991;DHT22;18508;49.386;8.370;2023-07-31T02:22:52;17.30;1.00
31991;DHT22;18508;49.386;8.370;2023-07-31T02:27:49;17.00;1.00
31991;DHT22;18508;49.386;8.370;2023-07-31T02:30:18;16.90;1.00
31991;DHT22;18508;49.386;8.370;2023-07-31T02:32:46;16.90;1.00
31991;DHT22;18508;49.386;8.370;2023-07-31T02:35:16;16.90;9.30
31991;DHT22;18508;49.386;8.370;2023-07-31T02:37:45;16.80;6.50
31991;DHT22;18508;49.386;8.370;2023-07-31T02:40:13;16.70;8.40
31991;DHT22;18508;49.386;8.370;2023-07-31T02:42:42;16.70;23.80
31991;DHT22;18508;49.386;8.370;2023-07-31T02:45:10;16.70;3.40
31991;DHT22;18508;49.386;8.370;2023-07-31T02:47:39;16.30;4.00
31991;DHT22;18508;49.386;8.370;2023-07-31T02:50:07;16.80;1.00
31991;DHT22;18508;49.386;8.370;2023-07-31T02:52:37;16.80;1.00
31991;DHT22;18508;49.386;8.370;2023-07-31T02:55:06;16.80;1.00
31991;DHT22;18508;49.386;8.370;2023-07-31T02:57:34;16.80;1.00
31991;DHT22;18508;49.386;8.370;2023-07-31T03:00:02;16.90;1.00
31991;DHT22;18508;49.386;8.370;2023-07-31T03:02:34;16.80;1.00
31991;DHT22;18508;49.386;8.370;2023-07-31T03:05:03;16.80;1.00
31991;DHT22;18508;49.386;8.370;2023-07-31T03:07:32;16.80;1.00
31991;DHT22;18508;49.386;8.370;2023-07-31T03:10:02;16.80;1.00
31991;DHT22;18508;49.386;8.370;2023-07-31T03:12:30;16.80;1.00
31991;DHT22;18508;49.386;8.370;2023-07-31T03:14:59;16.70;1.00
31991;DHT22;18508;49.386;8.370;2023-07-31T03:17:28;16.70;1.00
31991;DHT22;18508;49.386;8.370;2023-07-31T03:19:56;16.50;1.00
31991;DHT22;18508;49.386;8.370;2023-07-31T03:24:53;16.70;1.00
31991;DHT22;18508;49.386;8.370;2023-07-31T03:27:27;16.60;1.00
31991;DHT22;18508;49.386;8.370;2023-07-31T03:29:55;16.60;1.00
31991;DHT22;18508;49.386;8.370;2023-07-31T03:32:24;16.50;6.00
31991;DHT22;18508;49.386;8.370;2023-07-31T03:34:52;16.60;4.70
31991;DHT22;18508;49.386;8.370;2023-07-31T03:37:20;16.50;1.00
31991;DHT22;18508;49.386;8.370;2023-07-31T03:39:50;16.80;1.00
31991;DHT22;18508;49.386;8.370;2023-07-31T03:42:18;16.80;1.00
31991;DHT22;18508;49.386;8.370;2023-07-31T03:44:48;16.50;1.00
31991;DHT22;18508;49.386;8.370;2023-07-31T03:47:17;16.60;1.00
31991;DHT22;18508;49.386;8.370;2023-07-31T03:49:45;16.60;1.00
31991;DHT22;18508;49.386;8.370;2023-07-31T03:52:15;16.60;1.00
31991;DHT22;18508;49.386;8.370;2023-07-31T03:54:43;16.60;1.00
31991;DHT22;18508;49.386;8.370;2023-07-31T03:57:12;16.60;1.00
31991;DHT22;18508;49.386;8.370;2023-07-31T03:59:41;16.60;1.00
31991;DHT22;18508;49.386;8.370;2023-07-31T04:02:11;16.60;1.00
31991;DHT22;18508;49.386;8.370;2023-07-31T04:04:41;16.60;1.00
31991;DHT22;18508;49.386;8.370;2023-07-31T04:07:12;16.70;1.00
31991;DHT22;18508;49.386;8.370;2023-07-31T04:09:40;16.70;1.00
31991;DHT22;18508;49.386;8.370;2023-07-31T04:12:08;16.70;1.00
31991;DHT22;18508;49.386;8.370;2023-07-31T04:14:39;16.70;1.00
31991;DHT22;18508;49.386;8.370;2023-07-31T04:17:07;16.80;1.00
31991;DHT22;18508;49.386;8.370;2023-07-31T04:19:39;16.80;1.00
31991;DHT22;18508;49.386;8.370;2023-07-31T04:22:08;16.80;1.00
31991;DHT22;18508;49.386;8.370;2023-07-31T04:24:36;16.90;1.00
31991;DHT22;18508;49.386;8.370;2023-07-31T04:27:05;16.90;1.00
31991;DHT22;18508;49.386;8.370;2023-07-31T04:29:34;16.90;1.00
31991;DHT22;18508;49.386;8.370;2023-07-31T04:32:02;16.90;1.00
31991;DHT22;18508;49.386;8.370;2023-07-31T04:34:30;16.80;1.00
31991;DHT22;18508;49.386;8.370;2023-07-31T04:36:59;16.90;1.00
31991;DHT22;18508;49.386;8.370;2023-07-31T04:39:28;16.60;1.00
31991;DHT22;18508;49.386;8.370;2023-07-31T04:41:56;16.90;1.00
31991;DHT22;18508;49.386;8.370;2023-07-31T04:44:25;16.90;1.00
31991;DHT22;18508;49.386;8.370;2023-07-31T04:46:53;16.90;1.00
31991;DHT22;18508;49.386;8.370;2023-07-31T04:49:22;16.90;1.00
31991;DHT22;18508;49.386;8.370;2023-07-31T04:51:51;16.90;1.00
31991;DHT22;18508;49.386;8.370;2023-07-31T04:54:20;16.90;1.00
31991;DHT22;18508;49.386;8.370;2023-07-31T04:56:52;16.90;1.00
31991;DHT22;18508;49.386;8.370;2023-07-31T04:59:21;17.00;1.00
31991;DHT22;18508;49.386;8.370;2023-07-31T05:01:49;17.00;1.00
31991;DHT22;18508;49.386;8.370;2023-07-31T05:04:17;17.00;1.00
31991;DHT22;18508;49.386;8.370;2023-07-31T05:06:46;17.00;1.00
31991;DHT22;18508;49.386;8.370;2023-07-31T05:09:14;16.70;1.00
31991;DHT22;18508;49.386;8.370;2023-07-31T05:11:44;17.10;1.00
31991;DHT22;18508;49.386;8.370;2023-07-31T05:14:12;17.00;1.00
31991;DHT22;18508;49.386;8.370;2023-07-31T05:16:40;17.10;1.00
31991;DHT22;18508;49.386;8.370;2023-07-31T05:19:09;17.20;1.00
31991;DHT22;18508;49.386;8.370;2023-07-31T05:21:37;17.30;1.00
31991;DHT22;18508;49.386;8.370;2023-07-31T05:24:06;17.40;1.00
31991;DHT22;18508;49.386;8.370;2023-07-31T05:26:34;17.40;1.00
31991;DHT22;18508;49.386;8.370;2023-07-31T05:29:04;17.50;1.00
31991;DHT22;18508;49.386;8.370;2023-07-31T05:31:33;17.70;1.00
31991;DHT22;18508;49.386;8.370;2023-07-31T05:34:05;17.80;1.00
31991;DHT22;18508;49.386;8.370;2023-07-31T05:36:36;17.90;1.00
31991;DHT22;18508;49.386;8.370;2023-07-31T05:39:05;18.00;1.00
31991;DHT22;18508;49.386;8.370;2023-07-31T05:41:35;18.10;1.00
31991;DHT22;18508;49.386;8.370;2023-07-31T05:44:05;18.10;1.00
31991;DHT22;18508;49.386;8.370;2023-07-31T05:46:34;18.20;1.00
31991;DHT22;18508;49.386;8.370;2023-07-31T05:49:02;18.20;1.00
31991;DHT22;18508;49.386;8.370;2023-07-31T05:51:31;18.20;1.00
31991;DHT22;18508;49.386;8.370;2023-07-31T05:53:59;18.20;1.00
31991;DHT22;18508;49.386;8.370;2023-07-31T05:56:27;18.30;1.00
31991;DHT22;18508;49.386;8.370;2023-07-31T05:58:56;18.40;1.00
31991;DHT22;18508;49.386;8.370;2023-07-31T06:01:25;18.70;1.00
31991;DHT22;18508;49.386;8.370;2023-07-31T06:03:53;18.50;1.00
31991;DHT22;18508;49.386;8.370;2023-07-31T06:06:22;18.50;1.00
31991;DHT22;18508;49.386;8.370;2023-07-31T06:08:50;18.80;1.00
31991;DHT22;18508;49.386;8.370;2023-07-31T06:11:20;18.30;1.00
31991;DHT22;18508;49.386;8.370;2023-07-31T06:13:48;18.40;1.00
31991;DHT22;18508;49.386;8.370;2023-07-31T06:16:17;18.40;1.00
31991;DHT22;18508;49.386;8.370;2023-07-31T06:18:46;18.50;99.90
31991;DHT22;18508;49.386;8.370;2023-07-31T06:21:15;18.50;99.90
31991;DHT22;18508;49.386;8.370;2023-07-31T06:23:44;18.50;99.90
31991;DHT22;18508;49.386;8.370;2023-07-31T06:26:14;18.60;1.00
31991;DHT22;18508;49.386;8.370;2023-07-31T06:28:42;18.60;99.90
31991;DHT22;18508;49.386;8.370;2023-07-31T06:31:11;18.90;1.00
31991;DHT22;18508;49.386;8.370;2023-07-31T06:33:39;18.60;1.00
31991;DHT22;18508;49.386;8.370;2023-07-31T06:36:09;18.50;99.90
31991;DHT22;18508;49.386;8.370;2023-07-31T06:38:37;18.50;99.90
31991;DHT22;18508;49.386;8.370;2023-07-31T06:41:06;18.60;99.90
31991;DHT22;18508;49.386;8.370;2023-07-31T06:43:35;18.50;99.90
31991;DHT22;18508;49.386;8.370;2023-07-31T06:46:05;18.60;1.00
31991;DHT22;18508;49.386;8.370;2023-07-31T06:48:34;18.60;1.00
31991;DHT22;18508;49.386;8.370;2023-07-31T06:51:03;18.70;99.90
31991;DHT22;18508;49.386;8.370;2023-07-31T06:53:36;18.80;99.90
31991;DHT22;18508;49.386;8.370;2023-07-31T06:56:05;19.00;99.90
31991;DHT22;18508;49.386;8.370;2023-07-31T06:58:33;18.70;1.00
31991;DHT22;18508;49.386;8.370;2023-07-31T07:01:02;18.80;99.90
31991;DHT22;18508;49.386;8.370;2023-07-31T07:03:30;18.70;1.00
31991;DHT22;18508;49.386;8.370;2023-07-31T07:05:59;18.80;99.90
31991;DHT22;18508;49.386;8.370;2023-07-31T07:08:27;18.70;99.90
31991;DHT22;18508;49.386;8.370;2023-07-31T07:10:57;18.90;99.90
31991;DHT22;18508;49.386;8.370;2023-07-31T07:13:25;19.00;99.90
31991;DHT22;18508;49.386;8.370;2023-07-31T07:15:54;19.10;99.90
31991;DHT22;18508;49.386;8.370;2023-07-31T07:18:22;19.20;99.90
31991;DHT22;18508;49.386;8.370;2023-07-31T07:20:52;19.40;99.90
31991;DHT22;18508;49.386;8.370;2023-07-31T07:23:20;19.70;99.90
31991;DHT22;18508;49.386;8.370;2023-07-31T07:25:49;19.80;99.90
31991;DHT22;18508;49.386;8.370;2023-07-31T07:28:19;19.80;99.90
31991;DHT22;18508;49.386;8.370;2023-07-31T07:30:51;20.10;99.90
31991;DHT22;18508;49.386;8.370;2023-07-31T07:33:20;20.50;99.90
31991;DHT22;18508;49.386;8.370;2023-07-31T07:35:49;20.50;99.90
31991;DHT22;18508;49.386;8.370;2023-07-31T07:38:17;20.70;99.90
31991;DHT22;18508;49.386;8.370;2023-07-31T07:40:46;20.60;99.90
31991;DHT22;18508;49.386;8.370;2023-07-31T07:43:18;20.60;99.90
31991;DHT22;18508;49.386;8.370;2023-07-31T07:45:46;20.50;99.90
31991;DHT22;18508;49.386;8.370;2023-07-31T07:48:15;19.60;99.90
31991;DHT22;18508;49.386;8.370;2023-07-31T07:50:44;20.90;99.90
31991;DHT22;18508;49.386;8.370;2023-07-31T07:53:12;21.00;99.90
31991;DHT22;18508;49.386;8.370;2023-07-31T07:55:42;21.20;99.90
31991;DHT22;18508;49.386;8.370;2023-07-31T07:58:10;21.20;99.90
31991;DHT22;18508;49.386;8.370;2023-07-31T08:00:40;21.50;86.70
31991;DHT22;18508;49.386;8.370;2023-07-31T08:03:08;21.10;90.00
31991;DHT22;18508;49.386;8.370;2023-07-31T08:05:36;21.30;91.80
31991;DHT22;18508;49.386;8.370;2023-07-31T08:08:04;21.20;67.40
31991;DHT22;18508;49.386;8.370;2023-07-31T08:10:33;21.00;82.70
31991;DHT22;18508;49.386;8.370;2023-07-31T08:13:01;21.30;99.90
31991;DHT22;18508;49.386;8.370;2023-07-31T08:15:30;21.30;99.90
31991;DHT22;18508;49.386;8.370;2023-07-31T08:18:01;20.90;99.90
31991;DHT22;18508;49.386;8.370;2023-07-31T08:20:29;21.00;99.90
31991;DHT22;18508;49.386;8.370;2023-07-31T08:22:57;21.10;99.90
31991;DHT22;18508;49.386;8.370;2023-07-31T08:25:25;21.30;95.90
31991;DHT22;18508;49.386;8.370;2023-07-31T08:27:55;21.30;71.00
31991;DHT22;18508;49.386;8.370;2023-07-31T08:30:24;21.30;66.70
31991;DHT22;18508;49.386;8.370;2023-07-31T08:32:54;21.30;57.00
31991;DHT22;18508;49.386;8.370;2023-07-31T08:35:24;21.40;57.50
31991;DHT22;18508;49.386;8.370;2023-07-31T08:37:53;21.10;36.20
31991;DHT22;18508;49.386;8.370;2023-07-31T08:40:21;21.30;48.00
31991;DHT22;18508;49.386;8.370;2023-07-31T08:42:53;21.40;38.80
31991;DHT22;18508;49.386;8.370;2023-07-31T08:45:23;21.30;24.70
31991;DHT22;18508;49.386;8.370;2023-07-31T08:47:52;21.40;16.60
31991;DHT22;18508;49.386;8.370;2023-07-31T08:50:23;21.50;20.10
31991;DHT22;18508;49.386;8.370;2023-07-31T08:52:52;21.50;19.00
31991;DHT22;18508;49.386;8.370;2023-07-31T08:55:26;21.60;23.30
31991;DHT22;18508;49.386;8.370;2023-07-31T08:57:56;21.60;28.20
31991;DHT22;18508;49.386;8.370;2023-07-31T09:00:24;21.80;33.30
31991;DHT22;18508;49.386;8.370;2023-07-31T09:02:58;21.80;54.10
31991;DHT22;18508;49.386;8.370;2023-07-31T09:05:32;21.50;15.70
31991;DHT22;18508;49.386;8.370;2023-07-31T09:08:02;21.60;1.00
31991;DHT22;18508;49.386;8.370;2023-07-31T09:10:32;21.80;1.00
31991;DHT22;18508;49.386;8.370;2023-07-31T09:13:01;22.00;12.60
31991;DHT22;18508;49.386;8.370;2023-07-31T09:15:30;22.40;1.00
31991;DHT22;18508;49.386;8.370;2023-07-31T09:18:07;22.30;6.30
31991;DHT22;18508;49.386;8.370;2023-07-31T09:20:41;22.20;69.10
31991;DHT22;18508;49.386;8.370;2023-07-31T09:23:10;22.30;1.00
31991;DHT22;18508;49.386;8.370;2023-07-31T09:25:41;22.60;10.30
31991;DHT22;18508;49.386;8.370;2023-07-31T09:28:11;22.50;13.50
31991;DHT22;18508;49.386;8.370;2023-07-31T09:30:45;22.40;4.40
31991;DHT22;18508;49.386;8.370;2023-07-31T09:33:15;22.60;1.00
31991;DHT22;18508;49.386;8.370;2023-07-31T09:35:51;24.20;1.00
31991;DHT22;18508;49.386;8.370;2023-07-31T09:38:20;23.30;15.20
31991;DHT22;18508;49.386;8.370;2023-07-31T09:40:49;23.50;32.00
31991;DHT22;18508;49.386;8.370;2023-07-31T09:43:24;23.70;93.20
31991;DHT22;18508;49.386;8.370;2023-07-31T09:45:55;23.80;94.80
31991;DHT22;18508;49.386;8.370;2023-07-31T09:48:25;23.50;99.90
31991;DHT22;18508;49.386;8.370;2023-07-31T09:51:04;23.80;95.00
31991;DHT22;18508;49.386;8.370;2023-07-31T09:53:32;23.70;27.10
31991;DHT22;18508;49.386;8.370;2023-07-31T09:56:02;23.50;99.90
31991;DHT22;18508;49.386;8.370;2023-07-31T09:58:34;23.60;99.90
31991;DHT22;18508;49.386;8.370;2023-07-31T10:01:04;23.80;99.90
31991;DHT22;18508;49.386;8.370;2023-07-31T10:03:32;24.00;99.90
31991;DHT22;18508;49.386;8.370;2023-07-31T10:06:02;24.00;52.20
31991;DHT22;18508;49.386;8.370;2023-07-31T10:08:32;24.00;77.90
31991;DHT22;18508;49.386;8.370;2023-07-31T10:11:04;24.20;21.00
31991;DHT22;18508;49.386;8.370;2023-07-31T10:13:33;24.10;1.00
31991;DHT22;18508;49.386;8.370;2023-07-31T10:16:03;24.50;24.10
31991;DHT22;18508;49.386;8.370;2023-07-31T10:18:32;24.30;43.50
31991;DHT22;18508;49.386;8.370;2023-07-31T10:21:03;24.30;47.20
31991;DHT22;18508;49.386;8.370;2023-07-31T10:23:32;24.30;1.00
31991;DHT22;18508;49.386;8.370;2023-07-31T10:26:01;24.30;97.70
31991;DHT22;18508;49.386;8.370;2023-07-31T10:28:33;24.40;1.00
31991;DHT22;18508;49.386;8.370;2023-07-31T10:31:03;24.50;1.00
31991;DHT22;18508;49.386;8.370;2023-07-31T10:33:34;24.80;1.00
31991;DHT22;18508;49.386;8.370;2023-07-31T10:36:21;25.00;51.50
31991;DHT22;18508;49.386;8.370;2023-07-31T10:38:51;25.40;1.00
31991;DHT22;18508;49.386;8.370;2023-07-31T10:41:19;26.00;38.40
31991;DHT22;18508;49.386;8.370;2023-07-31T10:43:48;25.90;27.00
31991;DHT22;18508;49.386;8.370;2023-07-31T10:46:17;25.60;1.00
31991;DHT22;18508;49.386;8.370;2023-07-31T10:48:46;25.20;24.40
31991;DHT22;18508;49.386;8.370;2023-07-31T10:51:32;25.30;26.50
31991;DHT22;18508;49.386;8.370;2023-07-31T10:54:11;24.80;63.40
31991;DHT22;18508;49.386;8.370;2023-07-31T10:56:40;24.50;94.80
31991;DHT22;18508;49.386;8.370;2023-07-31T10:59:12;24.20;35.50
31991;DHT22;18508;49.386;8.370;2023-07-31T11:01:50;24.00;1.00
31991;DHT22;18508;49.386;8.370;2023-07-31T11:04:23;24.10;16.60
31991;DHT22;18508;49.386;8.370;2023-07-31T11:07:03;24.20;1.00
31991;DHT22;18508;49.386;8.370;2023-07-31T11:09:35;24.50;1.00
31991;DHT22;18508;49.386;8.370;2023-07-31T11:12:04;24.30;1.00
31991;DHT22;18508;49.386;8.370;2023-07-31T11:14:32;24.50;1.00
31991;DHT22;18508;49.386;8.370;2023-07-31T11:17:06;24.60;1.00
31991;DHT22;18508;49.386;8.370;2023-07-31T11:19:38;24.30;1.00
31991;DHT22;18508;49.386;8.370;2023-07-31T11:22:08;24.40;1.00
31991;DHT22;18508;49.386;8.370;2023-07-31T11:24:36;24.40;1.00
31991;DHT22;18508;49.386;8.370;2023-07-31T11:27:07;24.30;1.00
31991;DHT22;18508;49.386;8.370;2023-07-31T11:29:36;24.30;1.00
31991;DHT22;18508;49.386;8.370;2023-07-31T11:32:05;23.80;1.00
31991;DHT22;18508;49.386;8.370;2023-07-31T11:34:51;24.00;1.00
31991;DHT22;18508;49.386;8.370;2023-07-31T11:37:23;24.00;1.00
31991;DHT22;18508;49.386;8.370;2023-07-31T11:40:01;24.10;1.00
31991;DHT22;18508;49.386;8.370;2023-07-31T11:42:31;24.20;1.00
31991;DHT22;18508;49.386;8.370;2023-07-31T11:45:02;24.30;1.00
31991;DHT22;18508;49.386;8.370;2023-07-31T11:47:32;24.10;1.00
31991;DHT22;18508;49.386;8.370;2023-07-31T11:50:02;24.10;1.00
31991;DHT22;18508;49.386;8.370;2023-07-31T11:52:35;24.00;1.00
31991;DHT22;18508;49.386;8.370;2023-07-31T11:55:07;24.00;1.00
31991;DHT22;18508;49.386;8.370;2023-07-31T11:57:38;23.80;1.00
31991;DHT22;18508;49.386;8.370;2023-07-31T12:00:09;23.60;1.00
31991;DHT22;18508;49.386;8.370;2023-07-31T12:02:40;23.80;1.00
31991;DHT22;18508;49.386;8.370;2023-07-31T12:05:11;23.80;1.00
31991;DHT22;18508;49.386;8.370;2023-07-31T12:07:46;24.00;1.00
31991;DHT22;18508;49.386;8.370;2023-07-31T12:10:27;23.90;1.00
31991;DHT22;18508;49.386;8.370;2023-07-31T12:12:57;23.70;1.00
31991;DHT22;18508;49.386;8.370;2023-07-31T12:15:44;23.70;1.00
31991;DHT22;18508;49.386;8.370;2023-07-31T12:18:13;23.80;1.00
31991;DHT22;18508;49.386;8.370;2023-07-31T12:20:44;24.00;1.00
31991;DHT22;18508;49.386;8.370;2023-07-31T12:23:15;24.10;1.00
31991;DHT22;18508;49.386;8.370;2023-07-31T12:25:44;24.10;1.00
31991;DHT22;18508;49.386;8.370;2023-07-31T12:28:13;24.10;1.00
31991;DHT22;18508;49.386;8.370;2023-07-31T12:30:42;24.10;1.00
31991;DHT22;18508;49.386;8.370;2023-07-31T12:33:14;24.00;1.00
31991;DHT22;18508;49.386;8.370;2023-07-31T12:35:44;23.90;1.00
31991;DHT22;18508;49.386;8.370;2023-07-31T12:38:17;24.00;1.00
31991;DHT22;18508;49.386;8.370;2023-07-31T12:40:45;24.00;1.00
31991;DHT22;18508;49.386;8.370;2023-07-31T12:43:13;23.90;1.00
31991;DHT22;18508;49.386;8.370;2023-07-31T12:45:42;23.80;1.00
31991;DHT22;18508;49.386;8.370;2023-07-31T12:48:10;23.70;1.00
31991;DHT22;18508;49.386;8.370;2023-07-31T12:50:38;23.60;1.00
31991;DHT22;18508;49.386;8.370;2023-07-31T12:53:07;23.70;1.00
31991;DHT22;18508;49.386;8.370;2023-07-31T12:55:37;23.70;1.00
31991;DHT22;18508;49.386;8.370;2023-07-31T12:58:05;23.70;1.00
31991;DHT22;18508;49.386;8.370;2023-07-31T13:00:34;23.70;1.00
31991;DHT22;18508;49.386;8.370;2023-07-31T13:03:03;23.70;1.00
31991;DHT22;18508;49.386;8.370;2023-07-31T13:05:32;23.60;99.90
31991;DHT22;18508;49.386;8.370;2023-07-31T13:08:01;23.60;99.90
31991;DHT22;18508;49.386;8.370;2023-07-31T13:10:29;23.60;1.00
31991;DHT22;18508;49.386;8.370;2023-07-31T13:13:01;23.60;99.90
31991;DHT22;18508;49.386;8.370;2023-07-31T13:15:29;23.50;99.90
31991;DHT22;18508;49.386;8.370;2023-07-31T13:17:58;23.40;99.90
31991;DHT22;18508;49.386;8.370;2023-07-31T13:20:26;23.30;99.90
31991;DHT22;18508;49.386;8.370;2023-07-31T13:22:54;23.30;99.90
31991;DHT22;18508;49.386;8.370;2023-07-31T13:25:23;23.30;99.90
31991;DHT22;18508;49.386;8.370;2023-07-31T13:27:53;23.20;99.90
31991;DHT22;18508;49.386;8.370;2023-07-31T13:30:23;23.00;99.90
31991;DHT22;18508;49.386;8.370;2023-07-31T13:32:52;23.10;99.90
31991;DHT22;18508;49.386;8.370;2023-07-31T13:35:20;23.10;99.90
31991;DHT22;18508;49.386;8.370;2023-07-31T13:37:48;23.10;99.90
31991;DHT22;18508;49.386;8.370;2023-07-31T13:40:17;23.20;99.90
31991;DHT22;18508;49.386;8.370;2023-07-31T13:42:45;23.10;99.90
31991;DHT22;18508;49.386;8.370;2023-07-31T13:45:14;23.10;99.90
31991;DHT22;18508;49.386;8.370;2023-07-31T13:47:46;23.10;99.90
31991;DHT22;18508;49.386;8.370;2023-07-31T13:50:14;22.90;99.90
31991;DHT22;18508;49.386;8.370;2023-07-31T13:52:43;22.90;99.90
31991;DHT22;18508;49.386;8.370;2023-07-31T13:55:11;22.80;99.90
31991;DHT22;18508;49.386;8.370;2023-07-31T13:57:40;22.80;99.90
31991;DHT22;18508;49.386;8.370;2023-07-31T14:00:08;22.80;99.90
31991;DHT22;18508;49.386;8.370;2023-07-31T14:02:37;22.70;99.90
31991;DHT22;18508;49.386;8.370;2023-07-31T14:05:08;22.80;99.90
31991;DHT22;18508;49.386;8.370;2023-07-31T14:07:37;22.70;99.90
31991;DHT22;18508;49.386;8.370;2023-07-31T14:10:09;22.30;99.90
31991;DHT22;18508;49.386;8.370;2023-07-31T14:12:37;22.70;99.90
31991;DHT22;18508;49.386;8.370;2023-07-31T14:15:09;22.70;99.90
31991;DHT22;18508;49.386;8.370;2023-07-31T14:17:38;22.70;99.90
31991;DHT22;18508;49.386;8.370;2023-07-31T14:20:11;22.70;99.90
31991;DHT22;18508;49.386;8.370;2023-07-31T14:22:41;22.50;99.90
31991;DHT22;18508;49.386;8.370;2023-07-31T14:25:09;22.80;99.90
31991;DHT22;18508;49.386;8.370;2023-07-31T14:27:38;22.90;99.90
31991;DHT22;18508;49.386;8.370;2023-07-31T14:30:07;22.90;99.90
31991;DHT22;18508;49.386;8.370;2023-07-31T14:32:36;23.00;99.90
31991;DHT22;18508;49.386;8.370;2023-07-31T14:35:06;23.00;99.90
31991;DHT22;18508;49.386;8.370;2023-07-31T14:37:39;23.00;99.90
31991;DHT22;18508;49.386;8.370;2023-07-31T14:40:08;23.00;99.90
31991;DHT22;18508;49.386;8.370;2023-07-31T14:42:38;23.00;99.90
31991;DHT22;18508;49.386;8.370;2023-07-31T14:45:08;23.20;99.90
31991;DHT22;18508;49.386;8.370;2023-07-31T14:47:37;23.30;99.90
31991;DHT22;18508;49.386;8.370;2023-07-31T14:50:06;23.50;99.90
31991;DHT22;18508;49.386;8.370;2023-07-31T14:52:34;23.60;99.90
31991;DHT22;18508;49.386;8.370;2023-07-31T14:55:06;24.00;99.90
31991;DHT22;18508;49.386;8.370;2023-07-31T14:57:35;24.30;99.90
31991;DHT22;18508;49.386;8.370;2023-07-31T15:00:04;24.40;99.90
31991;DHT22;18508;49.386;8.370;2023-07-31T15:02:34;24.40;99.90
31991;DHT22;18508;49.386;8.370;2023-07-31T15:05:03;24.50;99.90
31991;DHT22;18508;49.386;8.370;2023-07-31T15:07:32;24.60;99.90
31991;DHT22;18508;49.386;8.370;2023-07-31T15:10:01;24.60;99.90
31991;DHT22;18508;49.386;8.370;2023-07-31T15:12:32;24.50;99.90
31991;DHT22;18508;49.386;8.370;2023-07-31T15:15:00;24.60;99.90
31991;DHT22;18508;49.386;8.370;2023-07-31T15:17:29;24.60;99.90
31991;DHT22;18508;49.386;8.370;2023-07-31T15:19:57;24.60;99.90
31991;DHT22;18508;49.386;8.370;2023-07-31T15:22:30;24.50;99.90
31991;DHT22;18508;49.386;8.370;2023-07-31T15:24:58;24.40;99.90
31991;DHT22;18508;49.386;8.370;2023-07-31T15:27:26;24.40;99.90
31991;DHT22;18508;49.386;8.370;2023-07-31T15:29:56;24.20;99.90
31991;DHT22;18508;49.386;8.370;2023-07-31T15:32:24;24.10;99.90
31991;DHT22;18508;49.386;8.370;2023-07-31T15:34:53;24.10;99.90
31991;DHT22;18508;49.386;8.370;2023-07-31T15:37:24;24.00;99.90
31991;DHT22;18508;49.386;8.370;2023-07-31T15:39:53;24.00;99.90
31991;DHT22;18508;49.386;8.370;2023-07-31T15:42:22;24.00;99.90
31991;DHT22;18508;49.386;8.370;2023-07-31T15:44:50;24.00;99.90
31991;DHT22;18508;49.386;8.370;2023-07-31T15:47:20;23.90;99.90
31991;DHT22;18508;49.386;8.370;2023-07-31T15:49:49;23.80;99.90
31991;DHT22;18508;49.386;8.370;2023-07-31T15:52:18;23.80;99.90
31991;DHT22;18508;49.386;8.370;2023-07-31T15:54:46;23.70;99.90
31991;DHT22;18508;49.386;8.370;2023-07-31T15:57:14;23.70;99.90
31991;DHT22;18508;49.386;8.370;2023-07-31T15:59:43;23.70;1.00